Suipacha, Argentina
Current Conditions -  °F | °C
As of 1:00 PM on Thursday 30 Oct 2014 (Local Time) from SAEZ Reporting Station
Broken Clouds Broken Clouds  
Wind Chill: 73°   Ceiling: 20000
Heat Index: 73°   Visibility: 6mi
Dew Point: 55°   Wind: 6mph
Humidity: 53%   Direction: 270°W
Pressure: 29.85"   Gusts: NA
Location:  34.75°S, 59.68°W
Report Text: SAEZ 301600Z 27005KT 230V330 9999 FEW040 BKN200 23/13 Q1011
Loading
Personal Weather Stations






























Interactive Weather Map New forecast layout! Learn more

10-Day Weather Forecast

Advertisements
Track Severe Weather on mobile